createdAt,value
2018-05-05T00:00:03.024Z,5.4
2018-05-05T00:01:04.679Z,5.9
2018-05-05T00:02:06.321Z,5.0
2018-05-05T00:03:07.965Z,6.1
2018-05-05T00:04:09.611Z,6.1
2018-05-05T00:05:11.268Z,6.0
2018-05-05T00:06:12.914Z,5.7
2018-05-05T00:07:14.565Z,5.9
2018-05-05T00:08:16.211Z,5.8
2018-05-05T00:09:17.859Z,5.3
2018-05-05T00:10:19.505Z,5.9
2018-05-05T00:11:21.152Z,5.9
2018-05-05T00:12:22.825Z,5.6
2018-05-05T00:13:24.472Z,5.4
2018-05-05T00:14:26.137Z,5.1
2018-05-05T00:15:27.774Z,5.9
2018-05-05T00:16:29.434Z,5.6
2018-05-05T00:17:31.086Z,6.1
2018-05-05T00:18:32.736Z,5.7
2018-05-05T00:19:34.390Z,6.2
2018-05-05T00:20:36.044Z,6.1
2018-05-05T00:21:37.703Z,6.2
2018-05-05T00:22:39.355Z,6.1
2018-05-05T00:23:41.009Z,6.2
2018-05-05T00:24:42.654Z,6.3
2018-05-05T00:25:44.301Z,6.1
2018-05-05T00:26:45.957Z,6.8
2018-05-05T00:27:47.602Z,6.3
2018-05-05T00:28:49.252Z,6.0
2018-05-05T00:29:50.904Z,5.8
2018-05-05T00:30:52.552Z,5.8
2018-05-05T00:31:54.200Z,6.2
2018-05-05T00:32:55.856Z,6.1
2018-05-05T00:33:57.498Z,6.2
2018-05-05T00:34:59.143Z,5.9
2018-05-05T00:36:00.785Z,6.2
2018-05-05T00:37:02.440Z,6.3
2018-05-05T00:38:04.099Z,5.9
2018-05-05T00:39:05.755Z,6.1
2018-05-05T00:40:07.400Z,5.1
2018-05-05T00:41:09.062Z,6.0
2018-05-05T00:42:10.707Z,5.8
2018-05-05T00:43:12.355Z,5.5
2018-05-05T00:44:14.069Z,5.9
2018-05-05T00:45:15.720Z,6.0
2018-05-05T00:46:17.372Z,5.9
2018-05-05T00:47:19.019Z,5.6
2018-05-05T00:48:20.676Z,6.1
2018-05-05T00:49:22.327Z,6.0
2018-05-05T00:50:23.975Z,6.1
2018-05-05T00:51:25.629Z,5.5
2018-05-05T00:52:27.264Z,5.8
2018-05-05T00:53:28.913Z,6.4
2018-05-05T00:54:30.567Z,6.1
2018-05-05T00:55:32.210Z,6.7
2018-05-05T00:56:33.861Z,6.1
2018-05-05T00:57:35.515Z,6.6
2018-05-05T00:58:37.174Z,6.2
2018-05-05T00:59:38.829Z,6.2
2018-05-05T01:00:40.487Z,6.1
2018-05-05T01:01:42.129Z,6.0
2018-05-05T01:02:43.775Z,6.4
2018-05-05T01:03:45.428Z,6.8
2018-05-05T01:04:47.117Z,6.3
2018-05-05T01:05:48.763Z,6.7
2018-05-05T01:06:50.407Z,6.2
2018-05-05T01:07:52.057Z,6.6
2018-05-05T01:08:53.696Z,6.8
2018-05-05T01:09:55.345Z,6.4
2018-05-05T01:10:56.996Z,6.3
2018-05-05T01:11:58.649Z,6.5
2018-05-05T01:13:00.299Z,6.2
2018-05-05T01:14:01.954Z,6.0
2018-05-05T01:15:03.600Z,6.4
2018-05-05T01:16:05.252Z,6.7
2018-05-05T01:17:06.889Z,7.1
2018-05-05T01:18:08.532Z,6.1
2018-05-05T01:19:10.183Z,7.0
2018-05-05T01:20:11.811Z,6.6
2018-05-05T01:21:13.474Z,6.2
2018-05-05T01:22:15.119Z,5.6
2018-05-05T01:23:16.777Z,5.3
2018-05-05T01:24:18.424Z,5.9
2018-05-05T01:25:20.083Z,6.0
2018-05-05T01:26:21.725Z,6.2
2018-05-05T01:27:23.383Z,6.3
2018-05-05T01:28:25.033Z,6.2
2018-05-05T01:29:26.685Z,6.0
2018-05-05T01:30:28.331Z,6.0
2018-05-05T01:31:29.984Z,5.5
2018-05-05T01:32:31.634Z,5.5
2018-05-05T01:33:33.282Z,6.3
2018-05-05T01:34:34.931Z,5.8
2018-05-05T01:35:36.570Z,5.7
2018-05-05T01:36:38.216Z,6.5
2018-05-05T01:37:39.871Z,6.1
2018-05-05T01:38:41.521Z,6.3
2018-05-05T01:39:43.166Z,5.7
2018-05-05T01:40:44.812Z,5.9
2018-05-05T01:41:46.492Z,5.8
2018-05-05T01:42:48.137Z,6.4
2018-05-05T01:43:49.788Z,5.9
2018-05-05T01:44:51.444Z,5.8
2018-05-05T01:45:53.093Z,6.0
2018-05-05T01:46:54.766Z,6.4
2018-05-05T01:47:56.415Z,5.5
2018-05-05T01:48:58.062Z,6.0
2018-05-05T01:49:59.706Z,6.6
2018-05-05T01:51:01.358Z,6.6
2018-05-05T01:52:03.052Z,6.5
2018-05-05T01:53:04.696Z,5.8
2018-05-05T01:54:06.342Z,6.2
2018-05-05T01:55:08.011Z,6.2
2018-05-05T01:56:09.657Z,6.5
2018-05-05T02:02:02.164Z,5.1
2018-05-05T02:03:03.795Z,5.4
2018-05-05T02:04:05.439Z,6.1
2018-05-05T02:05:07.074Z,6.4
2018-05-05T02:06:08.722Z,6.6
2018-05-05T02:07:10.370Z,6.2
2018-05-05T02:08:12.015Z,5.7
2018-05-05T02:09:13.664Z,6.1
2018-05-05T02:10:15.310Z,6.2
2018-05-05T02:11:16.955Z,5.7
2018-05-05T02:12:18.608Z,5.7
2018-05-05T02:13:20.272Z,5.7
2018-05-05T02:14:21.912Z,5.9
2018-05-05T02:15:23.554Z,6.0
2018-05-05T02:16:25.197Z,5.9
2018-05-05T02:17:26.843Z,5.9
2018-05-05T02:18:28.475Z,6.6
2018-05-05T02:19:30.120Z,6.8
2018-05-05T02:20:31.769Z,6.2
2018-05-05T02:21:33.442Z,6.0
2018-05-05T02:22:35.086Z,6.1
2018-05-05T02:23:36.735Z,5.6
2018-05-05T02:24:38.379Z,6.2
2018-05-05T02:25:40.039Z,5.7
2018-05-05T02:26:41.683Z,5.8
2018-05-05T02:27:43.329Z,6.4
2018-05-05T02:28:44.973Z,6.1
2018-05-05T02:29:46.642Z,6.0
2018-05-05T02:30:48.313Z,5.8
2018-05-05T02:31:49.953Z,6.3
2018-05-05T02:32:51.596Z,6.4
2018-05-05T02:33:53.237Z,6.0
2018-05-05T02:34:54.875Z,6.8
2018-05-05T02:35:56.548Z,5.6
2018-05-05T02:36:58.195Z,5.7
2018-05-05T02:37:59.857Z,5.6
2018-05-05T02:39:01.505Z,5.9
2018-05-05T02:40:03.142Z,5.0
2018-05-05T02:41:04.794Z,6.0
2018-05-05T02:42:06.439Z,5.1
2018-05-05T02:43:08.084Z,5.3
2018-05-05T02:44:09.735Z,5.4
2018-05-05T02:45:11.374Z,6.0
2018-05-05T02:46:13.023Z,5.1
2018-05-05T02:47:14.659Z,5.9
2018-05-05T02:48:16.299Z,5.3
2018-05-05T02:49:17.959Z,5.6
2018-05-05T02:50:19.597Z,5.3
2018-05-05T02:51:21.244Z,5.8
2018-05-05T02:52:22.909Z,5.9
2018-05-05T02:53:24.566Z,5.5
2018-05-05T02:54:26.221Z,5.2
2018-05-05T02:55:27.864Z,5.7
2018-05-05T02:56:29.504Z,5.9
2018-05-05T02:57:31.172Z,5.7
2018-05-05T02:58:32.817Z,5.5
2018-05-05T02:59:34.465Z,5.7
2018-05-05T03:00:36.119Z,5.4
2018-05-05T03:01:37.755Z,5.2
2018-05-05T03:02:39.398Z,5.2
2018-05-05T03:03:41.065Z,5.3
2018-05-05T03:04:42.712Z,5.9
2018-05-05T03:05:44.359Z,5.7
2018-05-05T03:06:46.016Z,6.0
2018-05-05T03:07:47.662Z,5.5
2018-05-05T03:08:49.298Z,5.7
2018-05-05T03:09:50.941Z,5.4
2018-05-05T03:10:52.576Z,5.2
2018-05-05T03:11:54.230Z,5.6
2018-05-05T03:12:55.882Z,5.6
2018-05-05T03:13:57.536Z,5.3
2018-05-05T03:14:59.184Z,6.3
2018-05-05T03:16:00.820Z,5.4
2018-05-05T03:17:02.465Z,5.5
2018-05-05T03:18:04.106Z,5.8
2018-05-05T03:19:05.757Z,6.0
2018-05-05T03:20:07.396Z,5.0
2018-05-05T03:21:09.046Z,5.8
2018-05-05T03:22:10.699Z,5.8
2018-05-05T03:23:12.333Z,5.2
2018-05-05T03:24:13.973Z,6.0
2018-05-05T03:25:15.623Z,5.8
2018-05-05T03:26:17.275Z,4.9
2018-05-05T03:27:18.942Z,5.5
2018-05-05T03:28:20.591Z,5.5
2018-05-05T03:29:22.232Z,5.7
2018-05-05T03:30:23.883Z,5.6
2018-05-05T03:31:25.538Z,6.1
2018-05-05T03:32:27.186Z,6.8
2018-05-05T03:33:28.834Z,6.7
2018-05-05T03:34:30.484Z,6.6
2018-05-05T03:35:32.131Z,5.9
2018-05-05T03:36:33.773Z,6.0
2018-05-05T03:37:35.419Z,6.1
2018-05-05T03:38:37.068Z,6.0
2018-05-05T03:39:38.712Z,6.0
2018-05-05T03:40:40.371Z,6.2
2018-05-05T03:41:42.015Z,7.1
2018-05-05T03:42:43.669Z,5.6
2018-05-05T03:43:45.309Z,6.2
2018-05-05T03:44:46.980Z,7.1
2018-05-05T03:45:48.628Z,6.6
2018-05-05T03:46:50.274Z,6.6
2018-05-05T03:47:51.932Z,7.0
2018-05-05T03:48:53.578Z,7.5
2018-05-05T03:49:55.226Z,6.2
2018-05-05T03:50:56.880Z,6.4
2018-05-05T03:51:58.534Z,6.9
2018-05-05T03:53:00.176Z,6.4
2018-05-05T03:54:01.931Z,6.2
2018-05-05T03:55:03.521Z,6.0
2018-05-05T03:56:05.199Z,6.1
2018-05-05T03:57:06.825Z,5.8
2018-05-05T03:58:08.475Z,6.2
2018-05-05T03:59:10.117Z,6.3
2018-05-05T04:00:11.773Z,6.0
2018-05-05T04:01:13.421Z,5.7
2018-05-05T04:02:15.080Z,7.3
2018-05-05T04:03:16.725Z,8.2
2018-05-05T04:04:18.385Z,8.4
2018-05-05T04:05:20.026Z,9.5
2018-05-05T04:06:21.681Z,10.3
2018-05-05T04:07:23.333Z,10.5
2018-05-05T04:08:24.990Z,12.6
2018-05-05T04:09:26.645Z,11.4
2018-05-05T04:10:28.288Z,11.6
2018-05-05T04:11:29.949Z,11.1
2018-05-05T04:12:31.607Z,11.0
2018-05-05T04:13:33.251Z,11.0
2018-05-05T04:14:34.898Z,9.9
2018-05-05T04:15:36.554Z,8.4
2018-05-05T04:16:38.218Z,9.0
2018-05-05T04:17:39.864Z,9.9
2018-05-05T04:18:41.512Z,10.4
2018-05-05T04:19:43.209Z,10.0
2018-05-05T04:20:44.826Z,8.7
2018-05-05T04:21:46.505Z,8.3
2018-05-05T04:22:48.161Z,7.7
2018-05-05T04:23:49.818Z,7.8
2018-05-05T04:24:51.471Z,7.1
2018-05-05T04:25:53.128Z,6.7
2018-05-05T04:26:54.779Z,7.8
2018-05-05T04:27:56.433Z,8.4
2018-05-05T04:28:58.090Z,7.4
2018-05-05T04:29:59.734Z,8.6
2018-05-05T04:31:01.377Z,9.2
2018-05-05T04:32:03.047Z,8.7
2018-05-05T04:33:04.704Z,8.3
2018-05-05T04:34:06.361Z,7.3
2018-05-05T04:35:08.017Z,6.2
2018-05-05T04:36:09.671Z,7.4
2018-05-05T04:37:11.324Z,7.8
2018-05-05T04:38:12.981Z,7.7
2018-05-05T04:39:14.627Z,6.5
2018-05-05T04:40:16.287Z,6.4
2018-05-05T04:41:17.946Z,6.8
2018-05-05T04:42:19.595Z,8.7
2018-05-05T04:43:21.251Z,8.4
2018-05-05T04:44:22.905Z,8.9
2018-05-05T04:45:24.558Z,8.3
2018-05-05T04:46:26.283Z,8.8
2018-05-05T04:47:27.922Z,8.5
2018-05-05T04:48:29.588Z,8.8
2018-05-05T04:49:31.242Z,8.7
2018-05-05T04:50:32.905Z,9.0
2018-05-05T04:51:34.554Z,9.0
2018-05-05T04:52:36.204Z,9.4
2018-05-05T04:53:37.928Z,9.6
2018-05-05T04:54:39.545Z,9.4
2018-05-05T04:55:41.198Z,10.6
2018-05-05T04:56:42.859Z,10.5
2018-05-05T04:57:44.512Z,10.6
2018-05-05T04:58:46.202Z,10.8
2018-05-05T04:59:47.854Z,9.3
2018-05-05T05:00:49.511Z,8.7
2018-05-05T05:01:51.162Z,9.1
2018-05-05T05:02:52.809Z,8.8
2018-05-05T05:03:54.459Z,7.7
2018-05-05T05:04:56.208Z,7.6
2018-05-05T05:05:57.851Z,8.2
2018-05-05T05:06:59.518Z,8.4
2018-05-05T05:08:01.176Z,7.1
2018-05-05T05:09:02.899Z,7.5
2018-05-05T05:10:04.542Z,6.6
2018-05-05T05:11:06.208Z,6.9
2018-05-05T05:12:07.853Z,6.7
2018-05-05T05:13:09.517Z,5.8
2018-05-05T05:14:11.176Z,6.0
2018-05-05T05:15:12.901Z,6.8
2018-05-05T05:16:14.661Z,5.9
2018-05-05T05:17:16.321Z,5.8
2018-05-05T05:18:17.979Z,5.3
2018-05-05T05:19:19.632Z,5.6
2018-05-05T05:20:21.304Z,5.7
2018-05-05T05:21:22.953Z,5.2
2018-05-05T05:22:24.616Z,6.0
2018-05-05T05:23:26.294Z,7.3
2018-05-05T05:24:27.952Z,5.5
2018-05-05T05:25:29.618Z,5.9
2018-05-05T05:26:31.291Z,5.6
2018-05-05T05:27:32.936Z,5.6
2018-05-05T05:28:34.602Z,5.3
2018-05-05T05:29:36.259Z,5.3
2018-05-05T05:30:37.930Z,5.0
2018-05-05T05:31:39.584Z,4.6
2018-05-05T05:32:41.250Z,4.2
2018-05-05T05:33:42.937Z,4.5
2018-05-05T05:34:44.610Z,4.3
2018-05-05T05:35:46.363Z,4.0
2018-05-05T05:36:48.025Z,4.8
2018-05-05T05:37:49.688Z,4.6
2018-05-05T05:38:51.357Z,3.3
2018-05-05T05:39:53.024Z,4.1
2018-05-05T05:40:54.680Z,3.5
2018-05-05T05:41:56.337Z,3.4
2018-05-05T05:42:58.008Z,3.1
2018-05-05T05:43:59.722Z,4.1
2018-05-05T05:45:01.399Z,3.6
2018-05-05T05:46:03.053Z,3.3
2018-05-05T05:47:04.711Z,3.5
2018-05-05T05:48:06.372Z,3.4
2018-05-05T05:49:08.034Z,3.4
2018-05-05T05:50:09.717Z,3.2
2018-05-05T05:51:11.374Z,3.1
2018-05-05T05:52:13.054Z,3.1
2018-05-05T05:53:14.682Z,2.8
2018-05-05T05:54:16.384Z,3.1
2018-05-05T05:55:18.038Z,3.4
2018-05-05T06:01:37.390Z,3.0
2018-05-05T06:02:39.049Z,3.0
2018-05-05T06:04:30.974Z,3.1
2018-05-05T06:05:32.654Z,3.1
2018-05-05T06:07:24.630Z,3.5
2018-05-05T06:08:26.291Z,3.0
2018-05-05T06:10:18.231Z,3.3
2018-05-05T06:11:19.908Z,2.8
2018-05-05T06:12:21.566Z,3.1
2018-05-05T06:13:23.233Z,3.6
2018-05-05T06:14:24.898Z,3.0
2018-05-05T06:15:26.631Z,2.9
2018-05-05T06:16:28.244Z,3.2
2018-05-05T06:17:29.911Z,3.0
2018-05-05T06:18:31.581Z,3.1
2018-05-05T06:19:33.247Z,2.8
2018-05-05T06:20:34.909Z,3.1
2018-05-05T06:21:36.579Z,3.1
2018-05-05T06:22:38.251Z,3.2
2018-05-05T06:23:39.920Z,3.0
2018-05-05T06:24:41.585Z,2.6
2018-05-05T06:25:43.249Z,2.7
2018-05-05T06:26:44.918Z,2.9
2018-05-05T06:27:46.599Z,3.2
2018-05-05T06:28:48.246Z,3.3
2018-05-05T06:29:49.912Z,2.9
2018-05-05T06:30:51.627Z,2.7
2018-05-05T06:31:53.257Z,3.3
2018-05-05T06:32:54.909Z,2.8
2018-05-05T06:33:56.581Z,3.0
2018-05-05T06:34:58.246Z,3.1
2018-05-05T06:35:59.908Z,2.9
2018-05-05T06:37:01.653Z,3.3
2018-05-05T06:38:03.306Z,3.4
2018-05-05T06:39:04.977Z,3.1
2018-05-05T06:40:06.646Z,3.1
2018-05-05T06:41:08.316Z,3.2
2018-05-05T06:42:09.977Z,3.2
2018-05-05T06:43:11.658Z,3.1
2018-05-05T06:44:13.333Z,3.3
2018-05-05T06:45:14.986Z,3.1
2018-05-05T06:46:16.649Z,3.5
2018-05-05T06:47:18.308Z,3.2
2018-05-05T06:48:19.980Z,3.6
2018-05-05T06:49:21.654Z,3.1
2018-05-05T06:50:23.320Z,3.4
2018-05-05T06:51:24.985Z,3.5
2018-05-05T06:52:26.711Z,3.5
2018-05-05T06:53:28.381Z,3.5
2018-05-05T06:54:30.052Z,3.6
2018-05-05T06:55:31.702Z,3.1
2018-05-05T06:56:33.372Z,3.1
2018-05-05T06:57:35.051Z,3.7
2018-05-05T06:58:36.724Z,3.8
2018-05-05T06:59:38.389Z,3.3
2018-05-05T07:00:40.054Z,3.5
2018-05-05T07:01:41.750Z,3.8
2018-05-05T07:02:43.413Z,3.4
2018-05-05T07:03:45.075Z,3.8
2018-05-05T07:04:46.760Z,3.3
2018-05-05T07:05:48.439Z,3.6
2018-05-05T07:06:50.091Z,3.5
2018-05-05T07:07:51.789Z,4.0
2018-05-05T07:08:53.465Z,4.0
2018-05-05T07:09:55.115Z,3.2
2018-05-05T07:10:56.779Z,3.6
2018-05-05T07:11:58.443Z,3.6
2018-05-05T07:13:00.119Z,3.5
2018-05-05T07:14:01.784Z,2.7
2018-05-05T07:15:03.460Z,3.6
2018-05-05T07:16:05.125Z,3.5
2018-05-05T07:17:07.077Z,3.3
2018-05-05T07:18:08.740Z,3.7
2018-05-05T07:19:10.415Z,4.0
2018-05-05T07:20:12.081Z,3.7
2018-05-05T07:21:13.756Z,3.3
2018-05-05T07:22:15.433Z,3.1
2018-05-05T07:23:17.098Z,3.4
2018-05-05T07:24:18.777Z,3.7
2018-05-05T07:25:20.435Z,3.6
2018-05-05T07:26:22.100Z,3.2
2018-05-05T07:27:23.772Z,3.4
2018-05-05T07:28:25.525Z,3.4
2018-05-05T07:29:27.553Z,4.0
2018-05-05T07:30:29.246Z,4.7
2018-05-05T07:31:30.921Z,3.5
2018-05-05T07:32:32.592Z,3.4
2018-05-05T07:33:34.279Z,3.7
2018-05-05T07:34:35.966Z,3.5
2018-05-05T07:35:37.631Z,3.1
2018-05-05T07:36:39.305Z,3.4
2018-05-05T07:37:40.977Z,4.1
2018-05-05T07:38:42.651Z,4.1
2018-05-05T07:39:44.331Z,3.1
2018-05-05T07:40:46.016Z,3.3
2018-05-05T07:41:47.700Z,3.3
2018-05-05T07:42:49.373Z,3.5
2018-05-05T07:43:51.050Z,3.5
2018-05-05T07:44:52.724Z,3.5
2018-05-05T07:45:54.342Z,3.2
2018-05-05T07:46:56.015Z,3.4
2018-05-05T07:47:57.682Z,3.9
2018-05-05T07:48:59.578Z,3.6
2018-05-05T07:50:01.247Z,3.5
2018-05-05T07:51:02.916Z,3.9
2018-05-05T07:52:04.585Z,3.3
2018-05-05T07:53:06.261Z,3.4
2018-05-05T07:54:07.920Z,3.5
2018-05-05T07:55:09.588Z,3.1
2018-05-05T07:56:11.261Z,3.1
2018-05-05T07:57:12.936Z,3.5
2018-05-05T07:58:14.615Z,3.9
2018-05-05T07:59:16.291Z,4.0
2018-05-05T08:00:17.923Z,3.4
2018-05-05T08:01:19.585Z,3.6
2018-05-05T08:02:21.275Z,3.6
2018-05-05T08:03:22.949Z,3.6
2018-05-05T08:04:24.620Z,3.7
2018-05-05T08:05:26.291Z,3.1
2018-05-05T08:06:27.994Z,4.0
2018-05-05T08:07:29.667Z,3.8
2018-05-05T08:08:31.335Z,3.6
2018-05-05T08:09:33.064Z,3.5
2018-05-05T08:10:34.724Z,3.9
2018-05-05T08:11:36.448Z,3.6
2018-05-05T08:12:38.141Z,4.0
2018-05-05T08:13:39.852Z,3.9
2018-05-05T08:14:41.522Z,3.5
2018-05-05T08:15:43.220Z,3.8
2018-05-05T08:16:44.884Z,3.6
2018-05-05T08:17:46.584Z,3.9
2018-05-05T08:18:48.262Z,3.8
2018-05-05T08:19:49.928Z,3.8
2018-05-05T08:20:51.615Z,3.9
2018-05-05T08:21:53.280Z,3.6
2018-05-05T08:22:54.969Z,3.4
2018-05-05T08:23:56.651Z,3.9
2018-05-05T08:24:58.738Z,4.0
2018-05-05T08:26:00.406Z,3.9
2018-05-05T08:27:02.108Z,3.5
2018-05-05T08:28:04.308Z,3.6
2018-05-05T08:29:06.036Z,3.6
2018-05-05T08:30:07.675Z,3.7
2018-05-05T08:31:09.383Z,3.5
2018-05-05T08:32:11.062Z,3.4
2018-05-05T08:33:12.807Z,3.8
2018-05-05T08:34:14.461Z,4.0
2018-05-05T08:35:16.135Z,3.9
2018-05-05T08:36:17.949Z,3.9
2018-05-05T08:37:19.634Z,3.7
2018-05-05T08:38:21.302Z,3.6
2018-05-05T08:39:23.273Z,3.8
2018-05-05T08:40:24.940Z,3.9
2018-05-05T08:41:26.668Z,4.2
2018-05-05T08:42:28.287Z,3.6
2018-05-05T08:43:29.961Z,3.8
2018-05-05T08:44:31.725Z,4.0
2018-05-05T08:45:33.421Z,3.6
2018-05-05T08:46:35.093Z,3.9
2018-05-05T08:47:36.758Z,4.1
2018-05-05T08:48:38.441Z,3.6
2018-05-05T08:49:40.141Z,3.7
2018-05-05T08:50:41.811Z,3.9
2018-05-05T08:51:43.478Z,3.6
2018-05-05T08:52:45.151Z,3.8
2018-05-05T08:53:46.859Z,3.5
2018-05-05T08:54:48.550Z,3.6
2018-05-05T08:55:50.226Z,3.3
2018-05-05T08:56:51.890Z,3.8
2018-05-05T08:57:53.568Z,3.4
2018-05-05T08:58:55.248Z,3.3
2018-05-05T08:59:56.920Z,3.5
2018-05-05T09:00:58.590Z,3.2
2018-05-05T09:02:00.285Z,3.5
2018-05-05T09:03:01.970Z,3.5
2018-05-05T09:04:03.643Z,3.2
2018-05-05T09:05:05.318Z,3.0
2018-05-05T09:06:07.014Z,3.6
2018-05-05T09:07:08.746Z,3.6
2018-05-05T09:08:10.423Z,3.7
2018-05-05T09:09:12.106Z,3.5
2018-05-05T09:10:13.790Z,3.3
2018-05-05T09:11:15.459Z,3.6
2018-05-05T09:12:17.145Z,3.4
2018-05-05T09:13:18.813Z,3.5
2018-05-05T09:14:20.491Z,4.3
2018-05-05T09:15:22.170Z,3.4
2018-05-05T09:16:23.872Z,3.6
2018-05-05T09:17:25.560Z,3.6
2018-05-05T09:18:27.215Z,3.3
2018-05-05T09:19:28.879Z,3.5
2018-05-05T09:20:30.561Z,3.3
2018-05-05T09:21:32.232Z,3.2
2018-05-05T09:22:33.902Z,3.7
2018-05-05T09:23:35.597Z,3.0
2018-05-05T09:24:37.315Z,3.4
2018-05-05T09:25:38.984Z,3.2
2018-05-05T09:26:40.653Z,3.1
2018-05-05T09:27:42.342Z,2.9
2018-05-05T09:28:44.005Z,3.4
2018-05-05T09:29:45.691Z,3.0
2018-05-05T09:30:47.356Z,3.2
2018-05-05T09:31:49.038Z,3.2
2018-05-05T09:32:51.351Z,3.1
2018-05-05T09:33:53.106Z,3.6
2018-05-05T09:34:54.716Z,3.1
2018-05-05T09:35:56.389Z,2.9
2018-05-05T09:36:58.058Z,3.9
2018-05-05T09:37:59.738Z,3.2
2018-05-05T09:39:01.423Z,3.8
2018-05-05T09:40:03.094Z,3.2
2018-05-05T09:41:04.776Z,3.3
2018-05-05T09:42:06.462Z,3.2
2018-05-05T09:43:08.154Z,2.8
2018-05-05T09:44:09.836Z,3.3
2018-05-05T09:45:11.501Z,3.1
2018-05-05T09:46:13.182Z,3.3
2018-05-05T09:47:14.857Z,2.9
2018-05-05T09:48:16.539Z,3.3
2018-05-05T09:49:18.300Z,3.2
2018-05-05T09:50:19.869Z,3.2
2018-05-05T09:51:21.541Z,3.2
2018-05-05T09:52:23.225Z,3.2
2018-05-05T09:53:24.985Z,3.5
2018-05-05T09:54:26.650Z,3.4
2018-05-05T10:01:15.841Z,2.9
2018-05-05T10:02:17.500Z,3.2
2018-05-05T10:03:19.194Z,3.7
2018-05-05T10:04:20.867Z,3.0
2018-05-05T10:05:22.540Z,3.2
2018-05-05T10:06:24.327Z,3.5
2018-05-05T10:07:26.010Z,3.2
2018-05-05T10:08:27.697Z,3.1
2018-05-05T10:09:29.370Z,3.5
2018-05-05T10:10:31.038Z,2.8
2018-05-05T10:11:32.718Z,3.4
2018-05-05T10:12:34.423Z,3.2
2018-05-05T10:13:36.093Z,3.3
2018-05-05T10:14:37.769Z,3.1
2018-05-05T10:15:39.449Z,3.1
2018-05-05T10:16:41.127Z,3.6
2018-05-05T10:17:42.801Z,3.4
2018-05-05T10:18:44.486Z,3.6
2018-05-05T10:19:46.155Z,3.2
2018-05-05T10:20:47.830Z,3.5
2018-05-05T10:21:49.505Z,3.6
2018-05-05T10:22:51.181Z,3.3
2018-05-05T10:23:52.945Z,3.0
2018-05-05T10:24:54.537Z,3.0
2018-05-05T10:25:56.206Z,3.0
2018-05-05T10:26:57.884Z,3.2
2018-05-05T10:27:59.555Z,3.9
2018-05-05T10:29:01.229Z,3.2
2018-05-05T10:30:02.926Z,3.2
2018-05-05T10:31:04.613Z,3.4
2018-05-05T10:32:06.273Z,3.1
2018-05-05T10:33:07.947Z,3.2
2018-05-05T10:34:09.613Z,3.5
2018-05-05T10:35:11.292Z,3.3
2018-05-05T10:36:12.979Z,3.3
2018-05-05T10:37:14.664Z,3.2
2018-05-05T10:38:16.334Z,3.0
2018-05-05T10:39:18.074Z,3.3
2018-05-05T10:40:19.686Z,3.1
2018-05-05T10:41:24.354Z,3.4
2018-05-05T10:42:25.868Z,3.2
2018-05-05T10:43:29.160Z,3.2
2018-05-05T10:44:30.853Z,2.9
2018-05-05T10:45:32.494Z,3.4
2018-05-05T10:46:34.165Z,3.5
2018-05-05T10:47:35.980Z,3.1
2018-05-05T10:48:39.300Z,3.5
2018-05-05T10:49:41.077Z,3.6
2018-05-05T10:50:42.759Z,3.2
2018-05-05T10:51:44.480Z,3.0
2018-05-05T10:52:46.198Z,3.3
2018-05-05T10:53:49.764Z,3.2
2018-05-05T10:54:51.887Z,3.0
2018-05-05T10:55:53.585Z,2.9
2018-05-05T10:56:55.275Z,3.3
2018-05-05T10:57:56.956Z,3.1
2018-05-05T10:59:00.169Z,2.6
2018-05-05T11:00:01.840Z,2.8
2018-05-05T11:01:03.513Z,3.5
2018-05-05T11:02:05.199Z,3.1
2018-05-05T11:03:06.884Z,2.9
2018-05-05T11:04:10.833Z,3.2
2018-05-05T11:05:12.513Z,2.7
2018-05-05T11:06:14.189Z,3.1
2018-05-05T11:07:15.902Z,2.8
2018-05-05T11:08:18.758Z,3.4
2018-05-05T11:09:21.548Z,3.0
2018-05-05T11:10:23.224Z,2.9
2018-05-05T11:11:24.948Z,2.5
2018-05-05T11:12:26.635Z,3.1
2018-05-05T11:13:30.234Z,3.1
2018-05-05T11:14:32.047Z,2.8
2018-05-05T11:15:33.763Z,3.2
2018-05-05T11:16:35.569Z,3.2
2018-05-05T11:17:37.429Z,2.7
2018-05-05T11:18:41.254Z,2.9
2018-05-05T11:19:44.646Z,2.8
2018-05-05T11:20:46.407Z,3.2
2018-05-05T11:21:48.208Z,2.7
2018-05-05T11:22:52.470Z,2.8
2018-05-05T11:23:54.447Z,2.8
2018-05-05T11:24:56.167Z,3.1
2018-05-05T11:25:57.902Z,3.6
2018-05-05T11:27:01.395Z,2.7
2018-05-05T11:28:03.666Z,2.5
2018-05-05T11:29:05.458Z,2.8
2018-05-05T11:30:07.798Z,2.8
2018-05-05T11:31:11.507Z,3.0
2018-05-05T11:32:13.169Z,3.0
2018-05-05T11:33:14.968Z,3.0
2018-05-05T11:34:16.699Z,2.5
2018-05-05T11:35:19.139Z,3.1
2018-05-05T11:36:22.565Z,2.9
2018-05-05T11:37:24.283Z,3.0
2018-05-05T11:38:26.080Z,2.8
2018-05-05T11:39:27.869Z,2.5
2018-05-05T11:40:29.639Z,2.7
2018-05-05T11:41:32.699Z,2.9
2018-05-05T11:42:34.494Z,3.4
2018-05-05T11:43:36.246Z,2.1
2018-05-05T11:44:38.018Z,2.5
2018-05-05T11:45:39.763Z,2.2
2018-05-05T11:46:41.518Z,2.7
2018-05-05T11:47:43.241Z,2.8
2018-05-05T11:48:45.003Z,2.8
2018-05-05T11:49:46.759Z,2.5
2018-05-05T11:50:48.517Z,2.8
2018-05-05T11:51:50.271Z,2.9
2018-05-05T11:52:52.004Z,2.7
2018-05-05T11:53:53.724Z,2.8
2018-05-05T11:54:55.467Z,3.1
2018-05-05T11:55:57.228Z,2.4
2018-05-05T11:56:58.984Z,2.7
2018-05-05T11:58:00.735Z,2.5
2018-05-05T11:59:02.446Z,2.3
2018-05-05T12:00:04.222Z,2.6
2018-05-05T12:01:06.029Z,3.3
2018-05-05T12:02:07.860Z,2.6
2018-05-05T12:03:09.518Z,2.6
2018-05-05T12:04:11.269Z,2.6
2018-05-05T12:05:13.111Z,2.7
2018-05-05T12:06:14.823Z,2.4
2018-05-05T12:07:16.571Z,2.7
2018-05-05T12:08:18.413Z,2.2
2018-05-05T12:09:20.206Z,2.4
2018-05-05T12:10:22.067Z,2.7
2018-05-05T12:11:23.809Z,2.6
2018-05-05T12:12:25.577Z,2.3
2018-05-05T12:13:27.337Z,2.6
2018-05-05T12:14:29.055Z,2.5
2018-05-05T12:15:30.868Z,2.6
2018-05-05T12:16:32.573Z,2.4
2018-05-05T12:17:34.249Z,2.1
2018-05-05T12:18:35.940Z,2.4
2018-05-05T12:19:37.603Z,2.4
2018-05-05T12:20:39.271Z,2.7
2018-05-05T12:21:40.957Z,2.4
2018-05-05T12:22:42.630Z,2.4
2018-05-05T12:23:44.311Z,2.4
2018-05-05T12:24:45.985Z,2.4
2018-05-05T12:25:47.671Z,2.2
2018-05-05T12:26:49.330Z,2.4
2018-05-05T12:27:51.011Z,2.3
2018-05-05T12:28:52.687Z,2.4
2018-05-05T12:29:54.385Z,2.3
2018-05-05T12:30:55.988Z,2.3
2018-05-05T12:31:57.674Z,2.3
2018-05-05T12:32:59.351Z,2.2
2018-05-05T12:34:01.018Z,2.5
2018-05-05T12:35:02.701Z,2.4
2018-05-05T12:36:04.375Z,2.3
2018-05-05T12:37:06.159Z,2.2
2018-05-05T12:38:07.790Z,2.5
2018-05-05T12:39:09.465Z,2.5
2018-05-05T12:40:11.149Z,2.2
2018-05-05T12:41:12.845Z,2.4
2018-05-05T12:42:14.518Z,2.4
2018-05-05T12:43:16.206Z,2.4
2018-05-05T12:44:17.878Z,2.7
2018-05-05T12:45:19.557Z,2.6
2018-05-05T12:46:21.239Z,2.5
2018-05-05T12:47:22.911Z,1.8
2018-05-05T12:48:24.597Z,2.3
2018-05-05T12:49:26.269Z,2.4
2018-05-05T12:50:27.947Z,2.5
2018-05-05T12:51:29.615Z,2.1
2018-05-05T12:52:31.299Z,2.2
2018-05-05T12:53:32.995Z,2.4
2018-05-05T12:54:34.695Z,2.3
2018-05-05T12:55:36.387Z,2.3
2018-05-05T12:56:38.074Z,2.6
2018-05-05T12:57:39.751Z,2.3
2018-05-05T12:58:41.431Z,2.4
2018-05-05T12:59:43.181Z,2.0
2018-05-05T13:00:44.792Z,1.9
2018-05-05T13:01:46.520Z,1.7
2018-05-05T13:02:48.192Z,2.5
2018-05-05T13:03:49.872Z,2.4
2018-05-05T13:04:51.567Z,2.3
2018-05-05T13:05:53.248Z,2.3
2018-05-05T13:06:54.959Z,2.2
2018-05-05T13:07:56.651Z,2.0
2018-05-05T13:08:58.335Z,2.1
2018-05-05T13:10:00.014Z,2.6
2018-05-05T13:11:01.704Z,2.2
2018-05-05T13:12:03.422Z,2.0
2018-05-05T13:13:05.130Z,2.2
2018-05-05T13:14:06.808Z,2.5
2018-05-05T13:15:08.516Z,2.2
2018-05-05T13:16:10.195Z,2.4
2018-05-05T13:17:11.923Z,3.4
2018-05-05T13:18:13.606Z,2.1
2018-05-05T13:19:15.276Z,2.2
2018-05-05T13:20:16.958Z,2.3
2018-05-05T13:21:18.637Z,2.3
2018-05-05T13:22:20.315Z,2.2
2018-05-05T13:23:22.004Z,2.2
2018-05-05T13:24:23.675Z,2.7
2018-05-05T13:25:25.347Z,2.2
2018-05-05T13:26:27.020Z,2.3
2018-05-05T13:27:28.693Z,2.1
2018-05-05T13:28:30.369Z,2.3
2018-05-05T13:29:32.129Z,2.0
2018-05-05T13:30:33.802Z,2.1
2018-05-05T13:31:35.477Z,2.4
2018-05-05T13:32:37.163Z,2.5
2018-05-05T13:33:38.859Z,2.0
2018-05-05T13:34:40.526Z,2.0
2018-05-05T13:35:42.257Z,2.2
2018-05-05T13:36:43.944Z,2.1
2018-05-05T13:37:45.607Z,2.6
2018-05-05T13:38:47.301Z,2.4
2018-05-05T13:39:48.980Z,2.3
2018-05-05T13:40:50.651Z,2.3
2018-05-05T13:41:52.323Z,2.3
2018-05-05T13:42:54.576Z,2.2
2018-05-05T13:43:56.251Z,2.3
2018-05-05T13:44:58.040Z,2.2
2018-05-05T13:45:59.931Z,2.2
2018-05-05T13:47:03.603Z,2.5
2018-05-05T13:48:05.301Z,2.0
2018-05-05T13:49:06.959Z,2.4
2018-05-05T13:50:08.645Z,2.2
2018-05-05T13:51:10.312Z,2.3
2018-05-05T13:52:11.991Z,2.1
2018-05-05T13:53:13.674Z,2.2
2018-05-05T13:54:15.343Z,2.3
2018-05-05T13:55:17.036Z,1.8
2018-05-05T14:02:04.944Z,1.9
2018-05-05T14:03:06.611Z,2.4
2018-05-05T14:04:08.286Z,2.1
2018-05-05T14:05:09.970Z,2.5
2018-05-05T14:06:11.636Z,2.6
2018-05-05T14:07:13.302Z,2.2
2018-05-05T14:08:14.981Z,1.8
2018-05-05T14:09:16.664Z,1.6
2018-05-05T14:10:18.337Z,2.2
2018-05-05T14:11:20.020Z,1.7
2018-05-05T14:12:21.762Z,2.2
2018-05-05T14:13:23.467Z,2.3
2018-05-05T14:14:25.151Z,2.5
2018-05-05T14:15:26.894Z,2.5
2018-05-05T14:16:28.521Z,1.8
2018-05-05T14:17:30.183Z,2.5
2018-05-05T14:18:31.866Z,2.2
2018-05-05T14:19:33.535Z,2.3
2018-05-05T14:20:35.210Z,2.6
2018-05-05T14:21:36.882Z,2.3
2018-05-05T14:22:38.591Z,2.3
2018-05-05T14:23:40.276Z,2.3
2018-05-05T14:24:41.958Z,2.8
2018-05-05T14:25:43.644Z,2.4
2018-05-05T14:26:45.315Z,2.2
2018-05-05T14:27:47.019Z,3.1
2018-05-05T14:28:48.692Z,1.7
2018-05-05T14:29:50.357Z,2.3
2018-05-05T14:30:52.038Z,2.0
2018-05-05T14:31:53.718Z,2.1
2018-05-05T14:32:55.385Z,2.0